Time;durP1;ratioP1;P1;durP2;ratioP2;P2;SDS_P1;SDS_P2;PMS_P1;PMS_P2;Temp;Humidity;BMP_temperature;BMP_pressure;BME280_temperature;BME280_humidity;BME280_pressure;Samples;Min_cycle;Max_cycle;Signal;HPM_P1;HPM_P2
2022/01/19 00:01:14;;;;;;;69.35;23.50;;;;;;;2.52;100.00;103268.06;5007533;28;20383;-45
2022/01/19 00:03:40;;;;;;;74.88;24.67;;;;;;;2.50;100.00;103254.09;5010359;28;20078;-43
2022/01/19 00:06:05;;;;;;;69.22;23.80;;;;;;;2.46;100.00;103249.81;5010065;28;20075;-44
2022/01/19 00:08:31;;;;;;;57.97;23.77;;;;;;;2.41;100.00;103244.69;5009130;28;20592;-46
2022/01/19 00:10:57;;;;;;;57.53;23.08;;;;;;;2.33;100.00;103238.78;5008894;28;20018;-43
2022/01/19 00:13:22;;;;;;;62.15;23.23;;;;;;;2.25;100.00;103243.44;5010268;28;20662;-44
2022/01/19 00:15:48;;;;;;;55.25;22.30;;;;;;;2.14;100.00;103245.53;5009754;28;20018;-44
2022/01/19 00:18:16;;;;;;;61.42;22.17;;;;;;;2.07;100.00;103246.63;5008658;28;21109;-43
2022/01/19 00:20:42;;;;;;;62.53;22.60;;;;;;;1.99;100.00;103245.09;4992464;28;20212;-47
2022/01/19 00:23:09;;;;;;;60.75;21.67;;;;;;;1.92;100.00;103242.69;5010797;28;20451;-44
2022/01/19 00:25:35;;;;;;;56.88;21.88;;;;;;;1.87;100.00;103232.31;5008853;28;20434;-44
2022/01/19 00:28:00;;;;;;;59.47;22.67;;;;;;;1.84;100.00;103224.47;5009723;28;20040;-44
2022/01/19 00:30:27;;;;;;;73.30;23.17;;;;;;;1.80;100.00;103215.81;5006723;28;20033;-43
2022/01/19 00:32:52;;;;;;;61.38;22.35;;;;;;;1.76;100.00;103184.31;5011694;28;20041;-46
2022/01/19 00:35:18;;;;;;;76.70;23.58;;;;;;;1.72;100.00;103175.66;5008815;28;20520;-48
2022/01/19 00:37:43;;;;;;;72.75;23.98;;;;;;;1.67;100.00;103159.13;5009546;28;20054;-42
2022/01/19 00:40:12;;;;;;;61.72;22.10;;;;;;;1.60;100.00;103161.06;5007947;28;20129;-42
2022/01/19 00:42:38;;;;;;;53.85;19.90;;;;;;;1.53;100.00;103153.38;5009689;28;20045;-43
2022/01/19 00:45:04;;;;;;;43.10;18.45;;;;;;;1.42;100.00;103151.94;5010897;28;20069;-43
2022/01/19 00:47:30;;;;;;;67.85;19.05;;;;;;;1.36;100.00;103167.91;5009854;28;20022;-43
2022/01/19 00:49:55;;;;;;;74.45;18.55;;;;;;;1.26;100.00;103164.69;5009196;28;20519;-43
2022/01/19 00:52:20;;;;;;;66.72;18.98;;;;;;;1.26;100.00;103182.25;5010571;28;20219;-47
2022/01/19 00:54:46;;;;;;;241.20;21.63;;;;;;;1.22;100.00;103183.22;5009231;28;20041;-44
2022/01/19 00:57:12;;;;;;;212.55;21.83;;;;;;;1.19;100.00;103184.19;5010676;28;20026;-44
2022/01/19 00:59:37;;;;;;;148.93;20.90;;;;;;;1.17;100.00;103193.03;5012562;28;20079;-47
2022/01/19 01:02:04;;;;;;;77.63;19.95;;;;;;;1.16;100.00;103191.31;5012960;28;20106;-45
2022/01/19 01:04:29;;;;;;;98.68;20.27;;;;;;;1.15;100.00;103179.03;5014204;28;20173;-44
2022/01/19 01:06:54;;;;;;;99.68;19.08;;;;;;;1.14;100.00;103167.66;5013012;28;20025;-44
2022/01/19 01:09:20;;;;;;;86.90;19.27;;;;;;;1.13;100.00;103155.41;5012754;28;20484;-43
2022/01/19 01:12:44;;;;;;;50.38;19.08;;;;;;;1.11;100.00;103147.53;5014135;28;20087;-44
2022/01/19 01:20:04;;;;;;;48.10;18.17;;;;;;;1.04;100.00;103106.53;5014720;28;20102;-43
2022/01/19 01:22:30;;;;;;;42.30;18.55;;;;;;;1.06;100.00;103103.84;5013224;28;20418;-46
2022/01/19 01:24:55;;;;;;;40.92;18.85;;;;;;;1.07;100.00;103097.66;5012480;28;20072;-43
2022/01/19 01:27:20;;;;;;;50.20;19.92;;;;;;;1.07;100.00;103095.91;5012130;28;20037;-43
2022/01/19 01:29:46;;;;;;;51.28;18.17;;;;;;;1.07;100.00;103085.38;5011368;28;20527;-43
2022/01/19 01:32:11;;;;;;;40.22;18.52;;;;;;;1.04;100.00;103079.34;5012506;28;20033;-47
2022/01/19 01:34:36;;;;;;;45.50;19.17;;;;;;;1.02;100.00;103071.50;5013316;28;20361;-47
2022/01/19 01:37:02;;;;;;;42.85;19.00;;;;;;;1.01;100.00;103053.97;5013303;28;20017;-43
2022/01/19 01:39:27;;;;;;;43.17;18.63;;;;;;;0.99;100.00;103034.75;5012863;28;20026;-45
2022/01/19 01:41:52;;;;;;;55.60;21.55;;;;;;;1.00;100.00;103022.44;5011408;28;20025;-44
2022/01/19 01:44:18;;;;;;;52.33;19.52;;;;;;;0.98;100.00;103025.13;5013051;28;20544;-46
2022/01/19 01:46:54;;;;;;;46.58;20.15;;;;;;;0.98;100.00;103037.41;5012273;28;20535;-49
2022/01/19 01:49:27;;;;;;;55.55;20.02;;;;;;;0.94;100.00;103047.19;5012004;28;20072;-43
2022/01/19 01:54:38;;;;;;;48.97;18.88;;;;;;;0.87;100.00;103057.00;5011972;28;20072;-44
2022/01/19 01:57:05;;;;;;;42.83;18.10;;;;;;;0.83;100.00;103050.13;5012044;28;20081;-45
2022/01/19 01:59:33;;;;;;;46.10;18.80;;;;;;;0.79;100.00;103052.88;5010777;28;20060;-44
2022/01/19 02:01:58;;;;;;;45.55;17.83;;;;;;;0.72;100.00;103060.06;5012096;28;20022;-45
2022/01/19 02:04:25;;;;;;;36.55;16.05;;;;;;;0.62;100.00;103061.22;5010804;28;20110;-46
2022/01/19 02:09:21;;;;;;;35.58;16.33;;;;;;;0.49;100.00;103050.16;5009735;28;20471;-43
2022/01/19 02:23:05;;;;;;;36.45;16.23;;;;;;;0.31;100.00;102983.19;5012379;28;20045;-45
2022/01/19 02:25:36;;;;;;;33.25;16.42;;;;;;;0.28;100.00;102986.75;5012754;28;20029;-46
2022/01/19 02:41:45;;;;;;;35.47;16.65;;;;;;;0.09;100.00;102954.00;4913012;29;20111;-46
2022/01/19 02:44:14;;;;;;;38.63;16.92;;;;;;;0.09;100.00;102961.91;4973873;28;20034;-44
2022/01/19 02:49:19;;;;;;;40.53;17.35;;;;;;;0.05;100.00;102936.59;5010523;28;20026;-44
2022/01/19 02:51:53;;;;;;;38.70;18.55;;;;;;;0.01;100.00;102934.97;5011618;28;20044;-45
2022/01/19 02:54:21;;;;;;;40.33;17.85;;;;;;;-0.01;100.00;102922.72;5011537;28;20029;-47
2022/01/19 02:56:51;;;;;;;43.38;17.30;;;;;;;-0.05;100.00;102902.69;5012163;28;20457;-46
2022/01/19 02:59:24;;;;;;;41.13;18.38;;;;;;;-0.03;100.00;102900.88;5010527;28;20018;-46
2022/01/19 03:09:45;;;;;;;48.50;18.77;;;;;;;-0.13;100.00;102860.03;5010748;28;20029;-44
2022/01/19 03:12:11;;;;;;;42.08;18.40;;;;;;;-0.16;100.00;102860.09;5010860;28;20509;-44
2022/01/19 03:14:37;;;;;;;40.40;17.98;;;;;;;-0.21;100.00;102849.72;5012831;28;20077;-47
2022/01/19 03:17:03;;;;;;;59.85;22.48;;;;;;;-0.21;100.00;102844.47;5010350;28;20534;-44
2022/01/19 03:19:30;;;;;;;53.85;22.23;;;;;;;-0.20;100.00;102853.22;5011262;28;20061;-47
2022/01/19 03:21:56;;;;;;;63.05;23.27;;;;;;;-0.20;100.00;102855.84;5009095;28;20399;-45
2022/01/19 03:24:21;;;;;;;68.53;23.63;;;;;;;-0.14;100.00;102850.41;5010394;28;20017;-46
2022/01/19 03:26:46;;;;;;;61.67;24.23;;;;;;;-0.12;100.00;102856.50;5011619;28;20028;-44
2022/01/19 03:29:12;;;;;;;69.47;25.27;;;;;;;-0.11;100.00;102852.09;5009392;28;20046;-43
2022/01/19 03:31:38;;;;;;;63.53;24.25;;;;;;;-0.10;100.00;102849.44;5010518;28;20104;-43
2022/01/19 03:34:05;;;;;;;69.18;25.38;;;;;;;-0.10;100.00;102835.41;5011803;28;20093;-45
2022/01/19 03:36:31;;;;;;;69.40;23.52;;;;;;;-0.10;100.00;102841.56;5009055;28;20030;-44
2022/01/19 03:38:56;;;;;;;75.07;26.00;;;;;;;-0.11;100.00;102842.44;5011714;28;20062;-44
2022/01/19 03:41:21;;;;;;;66.55;23.77;;;;;;;-0.13;100.00;102841.63;5009227;28;20026;-43
2022/01/19 03:43:47;;;;;;;74.97;26.02;;;;;;;-0.14;100.00;102823.28;5010100;28;20028;-44
2022/01/19 03:46:16;;;;;;;66.75;23.95;;;;;;;-0.18;100.00;102813.78;5010209;28;20071;-45
2022/01/19 03:48:50;;;;;;;73.00;26.52;;;;;;;-0.17;100.00;102807.63;5011027;28;20602;-45
2022/01/19 03:51:16;;;;;;;64.53;25.08;;;;;;;-0.17;100.00;102802.38;5010856;28;20021;-44
2022/01/19 03:53:41;;;;;;;70.80;26.45;;;;;;;-0.22;100.00;102799.84;5010697;28;20396;-45
2022/01/19 03:56:06;;;;;;;65.50;25.38;;;;;;;-0.21;100.00;102794.56;5009068;28;20363;-43
2022/01/19 03:58:32;;;;;;;69.70;25.80;;;;;;;-0.22;100.00;102798.13;5010940;28;20041;-43
2022/01/19 04:00:58;;;;;;;67.80;27.27;;;;;;;-0.23;100.00;102787.66;5009168;28;20033;-47
2022/01/19 04:04:03;;;;;;;69.07;26.60;;;;;;;-0.24;100.00;102791.16;5009547;28;20017;-43
2022/01/19 04:06:39;;;;;;;77.10;26.05;;;;;;;-0.25;100.00;102785.06;5010250;28;20038;-43
2022/01/19 04:09:05;;;;;;;78.90;28.35;;;;;;;-0.25;100.00;102776.34;5011377;28;20429;-46
2022/01/19 04:11:30;;;;;;;73.75;27.73;;;;;;;-0.26;100.00;102779.84;5008072;28;20049;-43
2022/01/19 04:16:31;;;;;;;68.50;25.52;;;;;;;-0.25;100.00;102784.22;5009706;28;20045;-45
2022/01/19 04:19:17;;;;;;;66.70;25.25;;;;;;;-0.24;100.00;102788.53;5008582;28;20024;-45
2022/01/19 04:21:43;;;;;;;70.78;25.30;;;;;;;-0.23;100.00;102787.66;5010326;28;20489;-44
2022/01/19 04:24:08;;;;;;;75.28;26.23;;;;;;;-0.23;100.00;102796.38;5009680;28;20029;-43
2022/01/19 04:26:34;;;;;;;75.65;27.88;;;;;;;-0.24;100.00;102784.19;5011064;28;20108;-43
2022/01/19 04:28:59;;;;;;;73.50;26.73;;;;;;;-0.25;100.00;102790.31;5010751;28;20460;-43
2022/01/19 04:31:25;;;;;;;72.30;26.83;;;;;;;-0.23;100.00;102793.75;5004074;28;20660;-44
2022/01/19 04:33:50;;;;;;;74.18;28.05;;;;;;;-0.24;100.00;102794.69;5006942;28;20480;-44
2022/01/19 04:36:33;;;;;;;76.47;27.55;;;;;;;-0.24;100.00;102788.53;5007295;28;20036;-45
2022/01/19 05:05:45;;;;;;;94.07;31.63;;;;;;;-0.13;100.00;102752.34;5015215;28;20052;-42
2022/01/19 05:08:23;;;;;;;111.13;33.47;;;;;;;-0.06;100.00;102748.63;5012535;28;20112;-45
2022/01/19 05:13:37;;;;;;;123.97;35.85;;;;;;;0.02;100.00;102772.06;5014098;28;20107;-43
2022/01/19 05:16:02;;;;;;;131.93;37.67;;;;;;;0.04;100.00;102766.75;5013583;28;20097;-43
2022/01/19 05:18:28;;;;;;;129.75;37.78;;;;;;;0.05;100.00;102766.72;5012019;28;20101;-46
2022/01/19 05:20:53;;;;;;;154.63;44.15;;;;;;;0.05;100.00;102755.31;5014940;28;20053;-45
2022/01/19 05:23:18;;;;;;;126.22;37.70;;;;;;;0.04;100.00;102769.38;5013100;28;20018;-43
2022/01/19 05:25:46;;;;;;;125.97;37.63;;;;;;;0.02;100.00;102760.66;5014821;28;20034;-44
2022/01/19 05:28:11;;;;;;;109.72;33.00;;;;;;;-0.01;100.00;102765.09;5011159;28;20029;-45
2022/01/19 05:30:36;;;;;;;97.47;32.08;;;;;;;0.00;100.00;102773.88;5013720;28;20029;-42
2022/01/19 05:33:02;;;;;;;110.65;33.70;;;;;;;-0.01;100.00;102759.00;5014426;28;20121;-44
2022/01/19 05:35:27;;;;;;;94.22;29.55;;;;;;;-0.06;100.00;102755.66;5012397;28;20619;-47
2022/01/19 05:37:53;;;;;;;101.30;32.67;;;;;;;-0.08;100.00;102753.06;4995262;28;20022;-47
2022/01/19 05:40:19;;;;;;;91.10;30.13;;;;;;;-0.08;100.00;102742.56;5013093;28;20112;-46
2022/01/19 05:42:47;;;;;;;84.57;28.90;;;;;;;-0.09;100.00;102745.22;5013919;28;20037;-45
2022/01/19 05:45:12;;;;;;;92.28;33.30;;;;;;;-0.09;100.00;102742.59;5011360;28;20104;-44
2022/01/19 05:47:38;;;;;;;102.25;35.28;;;;;;;-0.05;100.00;102736.34;5013464;28;20145;-45
2022/01/19 05:50:04;;;;;;;82.97;29.15;;;;;;;-0.03;100.00;102742.44;5013864;28;20468;-47
2022/01/19 05:52:29;;;;;;;72.80;27.05;;;;;;;-0.01;100.00;102744.09;5017142;28;20116;-47
2022/01/19 05:54:54;;;;;;;74.00;27.70;;;;;;;0.03;100.00;102757.16;5023835;28;20116;-48
2022/01/19 05:57:20;;;;;;;82.78;28.73;;;;;;;0.04;100.00;102743.13;5023046;28;20025;-48
2022/01/19 05:59:46;;;;;;;81.20;29.33;;;;;;;0.07;100.00;102753.50;5023541;28;20521;-47
2022/01/19 06:02:11;;;;;;;76.68;28.58;;;;;;;0.09;100.00;102742.06;5022531;28;20029;-46
2022/01/19 06:04:37;;;;;;;77.53;28.52;;;;;;;0.09;100.00;102736.81;5024253;28;20475;-45
2022/01/19 06:07:03;;;;;;;76.43;29.15;;;;;;;0.11;100.00;102736.75;5006219;28;20030;-49
2022/01/19 06:09:37;;;;;;;80.10;27.23;;;;;;;0.15;100.00;102727.88;5003190;28;20506;-44
2022/01/19 06:12:07;;;;;;;73.57;28.00;;;;;;;0.16;100.00;102727.81;5004041;28;20022;-44
2022/01/19 06:14:35;;;;;;;79.10;28.77;;;;;;;0.18;100.00;102726.00;5002613;28;20045;-46
2022/01/19 06:17:01;;;;;;;75.85;27.60;;;;;;;0.21;100.00;102724.22;5003621;28;20029;-48
2022/01/19 06:19:27;;;;;;;77.18;28.05;;;;;;;0.23;100.00;102728.50;5003168;28;20022;-46
2022/01/19 06:21:53;;;;;;;70.32;26.75;;;;;;;0.26;100.00;102722.31;5004085;28;20028;-48
2022/01/19 06:24:18;;;;;;;73.32;29.15;;;;;;;0.26;100.00;102717.03;5002482;28;20117;-44
2022/01/19 06:26:43;;;;;;;73.05;26.35;;;;;;;0.28;100.00;102716.06;5003668;28;20101;-45
2022/01/19 06:29:09;;;;;;;66.80;26.83;;;;;;;0.31;100.00;102700.22;5003297;28;20042;-44
2022/01/19 06:31:34;;;;;;;65.28;26.42;;;;;;;0.33;100.00;102693.13;5003217;28;20026;-48
2022/01/19 06:33:59;;;;;;;68.45;26.98;;;;;;;0.33;100.00;102697.53;5015204;28;20031;-45
2022/01/19 06:36:24;;;;;;;75.68;29.05;;;;;;;0.33;100.00;102687.03;4996397;28;20144;-47
2022/01/19 06:38:50;;;;;;;64.30;26.17;;;;;;;0.37;100.00;102683.38;4985991;28;20076;-44
2022/01/19 06:41:15;;;;;;;75.70;26.77;;;;;;;0.38;100.00;102684.25;5001835;28;20084;-47
2022/01/19 06:43:41;;;;;;;78.93;29.08;;;;;;;0.43;100.00;102679.72;5003848;28;20546;-47
2022/01/19 06:46:06;;;;;;;75.88;30.25;;;;;;;0.46;100.00;102671.72;5003455;28;20542;-48
2022/01/19 06:48:31;;;;;;;72.13;28.88;;;;;;;0.50;100.00;102675.97;5004948;28;20037;-47
2022/01/19 06:50:57;;;;;;;70.80;27.50;;;;;;;0.52;100.00;102666.25;5002944;28;20439;-48
2022/01/19 06:53:22;;;;;;;68.30;28.70;;;;;;;0.53;100.00;102662.72;5019571;28;20484;-44
2022/01/19 06:55:48;;;;;;;68.75;28.65;;;;;;;0.55;100.00;102663.53;5022323;28;20021;-45
2022/01/19 06:58:13;;;;;;;65.60;25.92;;;;;;;0.59;100.00;102657.25;5022044;28;20079;-46
2022/01/19 07:00:39;;;;;;;79.40;32.17;;;;;;;0.59;100.00;102653.75;5000335;28;20026;-49
2022/01/19 07:03:04;;;;;;;76.05;29.40;;;;;;;0.58;100.00;102646.78;5023245;28;20021;-49
2022/01/19 07:05:29;;;;;;;71.78;29.67;;;;;;;0.59;100.00;102649.34;5022341;28;20083;-48
2022/01/19 07:07:57;;;;;;;66.50;26.10;;;;;;;0.62;100.00;102651.03;5023028;28;20095;-46
2022/01/19 07:10:23;;;;;;;66.63;27.58;;;;;;;0.63;100.00;102658.00;5004541;28;20485;-47
2022/01/19 07:12:48;;;;;;;62.65;26.08;;;;;;;0.64;100.00;102657.09;5005288;28;20277;-44
2022/01/19 07:15:13;;;;;;;72.72;28.38;;;;;;;0.65;100.00;102654.41;5001648;28;20119;-44
2022/01/19 07:17:38;;;;;;;63.13;25.02;;;;;;;0.66;100.00;102648.25;5002448;28;20017;-45
2022/01/19 07:20:05;;;;;;;67.88;28.52;;;;;;;0.68;100.00;102653.44;5003168;28;20440;-47
2022/01/19 07:22:30;;;;;;;71.10;28.35;;;;;;;0.61;100.00;102639.69;5011877;28;20044;-47
2022/01/19 07:24:58;;;;;;;62.42;26.10;;;;;;;0.69;100.00;102648.13;5021684;28;20013;-45
2022/01/19 07:27:24;;;;;;;68.65;27.77;;;;;;;0.73;100.00;102643.63;5020146;28;20439;-47
2022/01/19 07:29:49;;;;;;;65.50;26.70;;;;;;;0.74;100.00;102640.94;5021000;28;20057;-47
2022/01/19 07:32:14;;;;;;;60.85;26.13;;;;;;;0.74;100.00;102640.94;5021809;28;20028;-51
2022/01/19 07:34:40;;;;;;;64.72;28.48;;;;;;;0.76;100.00;102637.41;5019120;28;20122;-44
2022/01/19 07:37:05;;;;;;;62.28;26.30;;;;;;;0.77;100.00;102633.88;5005459;28;20374;-47
2022/01/19 07:39:30;;;;;;;67.97;27.85;;;;;;;0.77;100.00;102634.72;5004566;28;20543;-45
2022/01/19 07:41:56;;;;;;;68.00;27.92;;;;;;;0.79;100.00;102640.78;5015438;28;20464;-47
2022/01/19 07:44:22;;;;;;;73.53;27.52;;;;;;;0.80;100.00;102633.75;5007810;28;20026;-50
2022/01/19 07:46:48;;;;;;;66.40;29.08;;;;;;;0.82;100.00;102642.47;5002824;28;20029;-49
2022/01/19 07:49:14;;;;;;;64.90;26.48;;;;;;;0.84;100.00;102640.66;5019341;28;20040;-46
2022/01/19 07:51:40;;;;;;;67.40;30.02;;;;;;;0.83;100.00;102637.16;5020696;28;20033;-46
2022/01/19 07:54:05;;;;;;;63.88;27.48;;;;;;;0.89;100.00;102642.19;5021424;28;20451;-49
2022/01/19 07:56:30;;;;;;;66.60;28.10;;;;;;;0.88;100.00;102622.06;5019005;28;20032;-45
2022/01/19 07:58:56;;;;;;;55.60;24.92;;;;;;;0.91;100.00;102629.84;5020565;28;20120;-48
2022/01/19 08:01:22;;;;;;;61.58;26.15;;;;;;;0.94;100.00;102631.50;5020092;28;20040;-48
2022/01/19 08:03:47;;;;;;;60.83;27.25;;;;;;;0.97;100.00;102636.66;5020684;28;20033;-49
2022/01/19 08:06:12;;;;;;;59.53;25.75;;;;;;;0.99;100.00;102628.72;5019474;28;20037;-47
2022/01/19 08:08:38;;;;;;;62.85;26.67;;;;;;;0.99;100.00;102629.56;5019909;28;20388;-44
2022/01/19 08:11:03;;;;;;;66.85;28.90;;;;;;;1.02;100.00;102618.06;5001751;28;20449;-45
2022/01/19 08:13:29;;;;;;;64.13;27.15;;;;;;;1.03;100.00;102604.84;5015496;28;20041;-46
2022/01/19 08:15:54;;;;;;;65.88;27.58;;;;;;;1.04;100.00;102611.00;5019294;28;20018;-48
2022/01/19 08:18:19;;;;;;;58.60;25.20;;;;;;;1.06;100.00;102614.44;5007624;28;20079;-45
2022/01/19 08:20:45;;;;;;;61.08;25.42;;;;;;;1.08;100.00;102604.69;5001385;28;20037;-49
2022/01/19 08:23:10;;;;;;;65.63;27.45;;;;;;;1.09;100.00;102609.91;5007632;28;20100;-49
2022/01/19 08:25:36;;;;;;;63.65;27.00;;;;;;;1.12;100.00;102603.66;5006094;28;20436;-46
2022/01/19 08:28:02;;;;;;;59.15;25.70;;;;;;;1.14;100.00;102606.25;5003359;28;20045;-46
2022/01/19 08:30:27;;;;;;;60.95;26.25;;;;;;;1.17;100.00;102616.66;4999882;28;20176;-45
2022/01/19 08:32:52;;;;;;;60.67;23.92;;;;;;;1.19;100.00;102604.28;5001871;28;20388;-45
2022/01/19 08:35:18;;;;;;;58.40;26.15;;;;;;;1.20;100.00;102612.13;5002281;28;20040;-46
2022/01/19 08:37:43;;;;;;;58.25;27.60;;;;;;;1.23;100.00;102613.81;5021315;28;20040;-44
2022/01/19 08:40:10;;;;;;;63.95;26.70;;;;;;;1.27;100.00;102591.72;5004207;28;20449;-51
2022/01/19 08:42:36;;;;;;;61.40;27.55;;;;;;;1.25;100.00;102589.13;5009172;28;20086;-48
2022/01/19 08:45:07;;;;;;;56.22;25.88;;;;;;;1.28;100.00;102589.03;4990670;28;20033;-44
2022/01/19 08:47:37;;;;;;;58.13;26.15;;;;;;;1.28;100.00;102578.50;4985328;28;20029;-44
2022/01/19 08:50:05;;;;;;;57.53;25.20;;;;;;;1.30;100.00;102573.19;5001428;28;20030;-47
2022/01/19 08:52:31;;;;;;;56.85;25.25;;;;;;;1.33;100.00;102574.84;4999439;28;20137;-44
2022/01/19 08:54:56;;;;;;;56.67;25.95;;;;;;;1.34;100.00;102571.28;5000509;28;20041;-44
2022/01/19 08:57:23;;;;;;;68.50;30.35;;;;;;;1.33;100.00;102569.59;4998920;28;20030;-44
2022/01/19 08:59:49;;;;;;;58.55;26.10;;;;;;;1.36;100.00;102567.69;4982433;28;20071;-45
2022/01/19 09:02:15;;;;;;;53.42;25.58;;;;;;;1.37;100.00;102568.53;4999606;28;20059;-46
2022/01/19 09:04:40;;;;;;;53.85;24.95;;;;;;;1.38;100.00;102565.84;5040259;28;20021;-45
2022/01/19 09:07:05;;;;;;;57.38;24.70;;;;;;;1.40;100.00;102564.00;5040493;28;20031;-47
2022/01/19 09:09:31;;;;;;;51.17;23.40;;;;;;;1.43;100.00;102571.78;5039728;28;20479;-46
2022/01/19 09:11:56;;;;;;;49.85;23.80;;;;;;;1.44;100.00;102559.47;5040479;28;20025;-46
2022/01/19 09:14:21;;;;;;;59.30;25.92;;;;;;;1.46;100.00;102553.25;5038359;28;20480;-45
2022/01/19 09:16:49;;;;;;;53.53;23.88;;;;;;;1.49;100.00;102553.13;5039656;28;20035;-46
2022/01/19 09:19:16;;;;;;;57.30;24.85;;;;;;;1.53;100.00;102547.72;5040647;28;20035;-46
2022/01/19 09:21:42;;;;;;;58.13;24.05;;;;;;;1.55;100.00;102553.81;5044048;28;20024;-47
2022/01/19 09:24:10;;;;;;;53.50;23.92;;;;;;;1.59;100.00;102552.75;5044661;28;20341;-47
2022/01/19 09:26:35;;;;;;;57.95;24.80;;;;;;;1.63;100.00;102555.22;5043355;28;20108;-46
2022/01/19 09:29:01;;;;;;;56.42;24.83;;;;;;;1.65;100.00;102544.63;5042994;28;20224;-48
2022/01/19 09:31:26;;;;;;;58.03;24.63;;;;;;;1.67;100.00;102541.00;5043222;28;20029;-46
2022/01/19 09:33:56;;;;;;;68.80;26.95;;;;;;;1.71;100.00;102547.00;5025696;28;20509;-44
2022/01/19 09:36:35;;;;;;;53.65;23.80;;;;;;;1.72;100.00;102538.19;5042686;28;20120;-46
2022/01/19 09:39:03;;;;;;;54.35;23.88;;;;;;;1.75;100.00;102530.16;5043337;28;20029;-44
2022/01/19 09:41:29;;;;;;;64.88;25.67;;;;;;;1.75;100.00;102524.91;5042284;28;20114;-46
2022/01/19 09:43:55;;;;;;;61.72;24.52;;;;;;;1.80;100.00;102522.06;5042817;28;20017;-46
2022/01/19 09:46:20;;;;;;;52.80;23.77;;;;;;;1.83;100.00;102519.31;5042337;28;20033;-47
2022/01/19 09:48:46;;;;;;;54.60;23.52;;;;;;;1.84;100.00;102498.16;5043083;28;20384;-44
2022/01/19 09:51:13;;;;;;;56.40;25.13;;;;;;;1.87;100.00;102505.09;5041253;28;20032;-44
2022/01/19 09:53:39;;;;;;;55.03;25.48;;;;;;;1.92;100.00;102504.88;5023077;28;20480;-47
2022/01/19 09:56:04;;;;;;;55.88;25.33;;;;;;;1.94;100.00;102505.72;5022985;28;20013;-44
2022/01/19 09:58:30;;;;;;;52.88;23.63;;;;;;;1.96;100.00;102504.72;5022601;28;20040;-44
2022/01/19 10:00:55;;;;;;;49.47;22.85;;;;;;;1.98;100.00;102500.22;5022508;28;20029;-44
2022/01/19 10:03:21;;;;;;;51.00;22.90;;;;;;;2.00;100.00;102497.53;5021709;28;20079;-43
2022/01/19 10:05:55;;;;;;;51.58;23.45;;;;;;;2.03;100.00;102492.13;5023462;28;20496;-46
2022/01/19 10:08:46;;;;;;;56.97;24.83;;;;;;;2.04;100.00;102493.84;5023115;28;20108;-48
2022/01/19 10:17:00;;;;;;;56.00;22.88;;;;;;;2.10;100.00;102485.66;5023224;28;20424;-44
2022/01/19 10:19:49;;;;;;;49.63;23.63;;;;;;;2.14;100.00;102484.63;5022247;28;20021;-44
2022/01/19 10:22:17;;;;;;;51.33;21.30;;;;;;;2.17;100.00;102473.09;5022574;28;20033;-45
2022/01/19 10:25:00;;;;;;;52.00;24.40;;;;;;;2.22;100.00;102479.00;5022649;28;20108;-44
2022/01/19 10:27:38;;;;;;;51.53;24.02;;;;;;;2.27;100.00;102477.03;5021884;28;20029;-43
2022/01/19 10:30:07;;;;;;;44.15;20.88;;;;;;;2.30;100.00;102471.63;5022352;28;20160;-42
2022/01/19 10:32:40;;;;;;;48.90;23.67;;;;;;;2.34;100.00;102464.44;5021798;28;20057;-47
2022/01/19 10:35:27;;;;;;;48.05;22.23;;;;;;;2.38;100.00;102458.13;5005190;28;20542;-47
2022/01/19 10:38:07;;;;;;;51.70;24.15;;;;;;;2.39;100.00;102454.56;5022805;28;20559;-45
2022/01/19 10:40:34;;;;;;;49.67;22.38;;;;;;;2.42;100.00;102457.91;5021249;28;20053;-50
2022/01/19 10:43:00;;;;;;;49.03;24.73;;;;;;;2.45;100.00;102456.94;5022801;28;20115;-45
2022/01/19 10:45:32;;;;;;;51.55;23.02;;;;;;;2.47;100.00;102454.22;5021109;28;20415;-49
2022/01/19 10:47:57;;;;;;;51.92;23.73;;;;;;;2.50;100.00;102448.81;5022674;28;20392;-46
2022/01/19 10:50:29;;;;;;;48.13;24.27;;;;;;;2.52;100.00;102446.97;5004318;28;20018;-47
2022/01/19 10:52:56;;;;;;;43.22;22.83;;;;;;;2.53;100.00;102452.16;5022719;28;20122;-47
2022/01/19 10:55:29;;;;;;;48.15;22.50;;;;;;;2.53;100.00;102438.09;5020995;28;20542;-42
2022/01/19 10:57:56;;;;;;;44.45;22.48;;;;;;;2.53;100.00;102424.91;5022033;28;20232;-42
2022/01/19 11:00:28;;;;;;;53.10;25.38;;;;;;;2.58;100.00;102430.84;5020752;28;20025;-43
2022/01/19 11:03:13;;;;;;;53.22;24.60;;;;;;;2.61;100.00;102433.34;5022228;28;20045;-47
2022/01/19 11:05:47;;;;;;;51.30;23.90;;;;;;;2.62;100.00;102437.69;5022259;28;20396;-48
2022/01/19 11:08:13;;;;;;;47.08;23.05;;;;;;;2.63;100.00;102426.25;5003843;28;21017;-44
2022/01/19 11:10:39;;;;;;;52.25;23.92;;;;;;;2.65;100.00;102418.22;5022185;28;20033;-46
2022/01/19 11:13:13;;;;;;;53.95;23.95;;;;;;;2.69;100.00;102414.53;5022438;28;20037;-48
2022/01/19 11:15:38;;;;;;;51.42;24.60;;;;;;;2.70;100.00;102410.94;5020965;28;20128;-46
2022/01/19 11:18:04;;;;;;;54.50;26.10;;;;;;;2.70;100.00;102403.03;5022451;28;20017;-50
2022/01/19 11:20:30;;;;;;;55.00;25.40;;;;;;;2.69;100.00;102399.56;5021655;28;20559;-46
2022/01/19 11:23:04;;;;;;;53.92;26.20;;;;;;;2.71;100.00;102396.84;5021781;28;20029;-44
2022/01/19 11:25:49;;;;;;;59.67;27.00;;;;;;;2.74;100.00;102400.19;5021103;28;20033;-43
2022/01/19 11:28:25;;;;;;;61.30;24.55;;;;;;;2.74;100.00;102386.16;5021219;28;20147;-45
2022/01/19 11:30:51;;;;;;;59.03;25.23;;;;;;;2.73;100.00;102371.25;5022212;28;20029;-46
2022/01/19 11:33:24;;;;;;;50.75;24.02;;;;;;;2.76;100.00;102363.19;5021093;28;20037;-43
2022/01/19 11:35:53;;;;;;;53.95;24.75;;;;;;;2.76;100.00;102360.56;5022036;28;20392;-43
2022/01/19 11:38:32;;;;;;;52.63;24.67;;;;;;;2.78;100.00;102361.34;5021648;28;20183;-44
2022/01/19 11:41:02;;;;;;;57.17;26.17;;;;;;;2.75;100.00;102359.72;5020974;28;20025;-43
2022/01/19 11:43:30;;;;;;;51.50;25.40;;;;;;;2.78;100.00;102353.41;5018939;28;20103;-44
2022/01/19 11:45:57;;;;;;;57.63;25.25;;;;;;;2.77;100.00;102341.16;5021997;28;20025;-43
2022/01/19 11:48:29;;;;;;;58.80;28.90;;;;;;;2.79;100.00;102348.06;5021008;28;20057;-45
2022/01/19 11:51:20;;;;;;;57.75;25.80;;;;;;;2.79;100.00;102336.66;5021592;28;20070;-43
2022/01/19 11:54:21;;;;;;;53.42;24.48;;;;;;;2.80;100.00;102327.81;5021398;28;20032;-47
2022/01/19 11:56:59;;;;;;;61.10;27.00;;;;;;;2.81;100.00;102318.97;5021249;28;20025;-44
2022/01/19 11:59:45;;;;;;;60.35;27.83;;;;;;;2.82;100.00;102307.50;5019429;28;20022;-44
2022/01/19 12:02:33;;;;;;;59.00;26.00;;;;;;;2.84;100.00;102321.47;5020934;28;20020;-42
2022/01/19 12:04:58;;;;;;;56.85;26.50;;;;;;;2.85;100.00;102320.56;5021360;28;20033;-43
2022/01/19 12:07:44;;;;;;;67.20;27.63;;;;;;;2.86;100.00;102308.22;5020242;28;20025;-43
2022/01/19 12:10:19;;;;;;;55.33;26.13;;;;;;;2.90;100.00;102289.53;5020270;28;20291;-43
2022/01/19 12:12:56;;;;;;;63.47;30.73;;;;;;;2.92;100.00;102286.78;5021146;28;20067;-46
2022/01/19 12:15:54;;;;;;;70.03;30.70;;;;;;;2.98;100.00;102281.19;5019576;28;20506;-46
2022/01/19 12:18:39;;;;;;;62.63;27.60;;;;;;;3.11;100.00;102277.03;5020754;28;20017;-46
2022/01/19 12:21:06;;;;;;;55.25;26.65;;;;;;;3.17;100.00;102268.81;5021393;28;20045;-47
2022/01/19 12:23:35;;;;;;;63.20;27.85;;;;;;;3.21;100.00;102264.22;5002799;28;20041;-45
2022/01/19 12:26:02;;;;;;;67.43;28.90;;;;;;;3.24;100.00;102264.06;5020483;28;20026;-45
2022/01/19 12:28:47;;;;;;;63.65;31.35;;;;;;;3.23;100.00;102254.44;5019259;28;20045;-48
2022/01/19 12:31:24;;;;;;;66.10;29.85;;;;;;;3.27;100.00;102269.16;5020174;28;20517;-42
2022/01/19 12:34:07;;;;;;;64.75;30.52;;;;;;;3.27;100.00;102260.41;5021512;28;20090;-42
2022/01/19 12:36:47;;;;;;;62.67;29.75;;;;;;;3.30;100.00;102254.97;5020837;28;20492;-43